createdAt,value
2022-08-09T00:00:50.801Z,101096.89
2022-08-09T00:01:55.733Z,101096.89
2022-08-09T00:02:57.819Z,101098.69
2022-08-09T00:04:00.312Z,101093.44
2022-08-09T00:06:18.465Z,101089.16
2022-08-09T00:06:19.038Z,101098.77
2022-08-09T00:07:11.582Z,101096.28
2022-08-09T00:08:32.112Z,101099.93
2022-08-09T00:09:17.620Z,101096.50
2022-08-09T00:10:24.620Z,101089.50
2022-08-09T00:11:27.634Z,101099.34
2022-08-09T00:12:29.836Z,101100.28
2022-08-09T00:13:33.450Z,101087.98
2022-08-09T00:14:38.536Z,101089.80
2022-08-09T00:15:59.599Z,101092.51
2022-08-09T00:16:44.525Z,101097.02
2022-08-09T00:18:10.831Z,101091.76
2022-08-09T00:18:51.869Z,101086.45
2022-08-09T00:19:55.534Z,101092.67
2022-08-09T00:20:59.286Z,101087.36
2022-08-09T00:22:01.213Z,101091.81
2022-08-09T00:23:56.553Z,101090.95
2022-08-09T00:24:08.966Z,101087.42
2022-08-09T00:25:12.809Z,101095.43
2022-08-09T00:26:16.116Z,101083.11
2022-08-09T00:27:19.785Z,101092.83
2022-08-09T00:28:22.368Z,101084.07
2022-08-09T00:30:10.465Z,101086.72
2022-08-09T00:30:29.690Z,101086.83
2022-08-09T00:31:58.227Z,101085.03
2022-08-09T00:32:35.135Z,101092.13
2022-08-09T00:33:50.804Z,101089.54
2022-08-09T00:34:40.784Z,101094.03
2022-08-09T00:35:44.473Z,101089.64
2022-08-09T00:36:46.525Z,101087.91
2022-08-09T00:37:48.686Z,101094.16
2022-08-09T00:38:51.281Z,101087.16
2022-08-09T00:40:13.699Z,101080.16
2022-08-09T00:40:58.209Z,101080.20
2022-08-09T00:44:10.390Z,101082.00
2022-08-09T00:44:14.248Z,101086.42
2022-08-09T00:44:20.074Z,101086.42
2022-08-09T00:45:16.276Z,101080.27
2022-08-09T00:46:28.487Z,101074.10
2022-08-09T00:48:40.753Z,101079.41
2022-08-09T00:49:52.558Z,101075.97
2022-08-09T00:50:52.081Z,101075.06
2022-08-09T00:51:55.982Z,101071.50
2022-08-09T00:52:55.726Z,101072.36
2022-08-09T00:53:57.907Z,101073.27
2022-08-09T00:55:01.198Z,101075.92
2022-08-09T00:56:09.810Z,101078.52
2022-08-09T00:57:10.207Z,101071.50
2022-08-09T00:58:14.802Z,101070.56
2022-08-09T00:59:14.468Z,101072.31
2022-08-09T01:00:21.247Z,101072.31
2022-08-09T01:01:23.617Z,101069.66
2022-08-09T01:02:27.353Z,101074.96
2022-08-09T01:03:29.201Z,101074.96
2022-08-09T01:04:32.897Z,101070.56
2022-08-09T01:05:51.135Z,101072.31
2022-08-09T01:06:54.222Z,101078.52
2022-08-09T01:08:00.146Z,101072.36
2022-08-09T01:08:49.498Z,101079.41
2022-08-09T01:09:51.871Z,101071.50
2022-08-09T01:10:54.030Z,101074.16
2022-08-09T01:11:56.194Z,101075.06
2022-08-09T01:12:58.242Z,101083.88
2022-08-09T01:14:02.000Z,101084.81
2022-08-09T01:15:06.109Z,101082.16
2022-08-09T01:16:08.197Z,101076.86
2022-08-09T01:17:10.920Z,101084.81
2022-08-09T01:18:14.262Z,101083.07
2022-08-09T01:19:16.654Z,101083.92
2022-08-09T01:20:19.695Z,101081.27
2022-08-09T01:21:24.757Z,101081.27
2022-08-09T01:22:27.209Z,101082.22
2022-08-09T01:24:00.839Z,101082.22
2022-08-09T01:24:33.131Z,101081.33
2022-08-09T01:25:37.417Z,101083.98
2022-08-09T01:26:40.110Z,101082.27
2022-08-09T01:27:42.074Z,101077.82
2022-08-09T01:28:44.016Z,101082.27
2022-08-09T01:29:55.494Z,101075.22
2022-08-09T01:30:53.116Z,101080.52
2022-08-09T01:32:31.214Z,101083.17
2022-08-09T01:32:59.016Z,101076.08
2022-08-09T01:34:00.956Z,101079.67
2022-08-09T01:35:18.095Z,101077.87
2022-08-09T01:36:08.856Z,101081.37
2022-08-09T01:37:10.720Z,101082.27
2022-08-09T01:38:15.365Z,101084.97
2022-08-09T01:39:17.683Z,101084.08
2022-08-09T01:40:23.289Z,101084.08
2022-08-09T01:41:25.907Z,101081.43
2022-08-09T01:42:28.259Z,101084.08
2022-08-09T01:43:31.587Z,101074.47
2022-08-09T01:44:35.280Z,101085.08
2022-08-09T01:45:46.116Z,101085.98
2022-08-09T01:46:41.657Z,101084.23
2022-08-09T01:47:44.954Z,101086.89
2022-08-09T01:48:48.284Z,101088.69
2022-08-09T01:49:54.521Z,101085.14
2022-08-09T01:50:55.213Z,101082.50
2022-08-09T01:51:57.409Z,101082.50
2022-08-09T01:52:59.285Z,101085.20
2022-08-09T01:54:01.488Z,101092.34
2022-08-09T01:55:03.370Z,101091.54
2022-08-09T01:56:05.430Z,101095.95
2022-08-09T01:57:08.141Z,101087.14
2022-08-09T01:58:10.070Z,101088.94
2022-08-09T01:59:16.018Z,101089.80
2022-08-09T02:00:34.818Z,101084.50
2022-08-09T02:01:30.546Z,101084.55
2022-08-09T02:02:31.137Z,101090.70
2022-08-09T02:03:29.267Z,101099.55
2022-08-09T02:04:32.197Z,101084.50
2022-08-09T02:05:53.623Z,101091.59
2022-08-09T02:06:39.391Z,101091.59
2022-08-09T02:08:39.841Z,101092.45
2022-08-09T02:08:58.667Z,101094.24
2022-08-09T02:09:59.307Z,101097.70
2022-08-09T02:10:54.488Z,101099.49
2022-08-09T02:11:56.967Z,101088.94
2022-08-09T02:12:58.957Z,101103.05
2022-08-09T02:14:06.622Z,101099.55
2022-08-09T02:15:06.396Z,101097.75
2022-08-09T02:16:08.970Z,101102.25
2022-08-09T02:17:29.479Z,101097.80
2022-08-09T02:18:16.055Z,101098.70
2022-08-09T02:19:18.543Z,101102.30
2022-08-09T02:20:26.605Z,101098.80
2022-08-09T02:21:26.556Z,101100.60
2022-08-09T02:22:35.067Z,101098.88
2022-08-09T02:23:39.850Z,101105.16
2022-08-09T02:24:36.804Z,101110.52
2022-08-09T02:25:41.890Z,101109.62
2022-08-09T02:26:44.306Z,101109.67
2022-08-09T02:27:57.592Z,101109.67
2022-08-09T02:28:50.480Z,101105.28
2022-08-09T02:29:52.357Z,101113.28
2022-08-09T02:30:54.683Z,101112.42
2022-08-09T02:31:56.560Z,101116.87
2022-08-09T02:32:58.644Z,101107.17
2022-08-09T02:34:13.451Z,101111.61
2022-08-09T02:35:17.519Z,101104.57
2022-08-09T02:36:10.579Z,101103.77
2022-08-09T02:37:12.550Z,101109.16
2022-08-09T02:38:27.910Z,101106.52
2022-08-09T02:39:20.161Z,101102.12
2022-08-09T02:40:24.844Z,101109.21
2022-08-09T02:41:26.913Z,101107.42
2022-08-09T02:42:28.866Z,101110.97
2022-08-09T02:43:31.020Z,101106.56
2022-08-09T02:44:34.815Z,101108.32
2022-08-09T02:45:37.997Z,101109.27
2022-08-09T02:46:41.178Z,101104.81
2022-08-09T02:47:57.229Z,101111.02
2022-08-09T02:48:46.926Z,101098.76
2022-08-09T02:49:55.540Z,101104.96
2022-08-09T02:50:56.496Z,101104.11
2022-08-09T02:51:58.312Z,101104.96
2022-08-09T02:53:01.596Z,101097.87
2022-08-09T02:54:05.386Z,101106.70
2022-08-09T02:55:20.334Z,101105.81
2022-08-09T02:56:12.062Z,101105.81
2022-08-09T02:57:23.516Z,101097.87
2022-08-09T02:58:35.934Z,101105.81
2022-08-09T02:59:25.909Z,101104.06
2022-08-09T03:00:27.551Z,101104.06
2022-08-09T03:01:42.741Z,101107.52
2022-08-09T03:02:35.884Z,101114.56
2022-08-09T03:04:17.131Z,101109.27
2022-08-09T03:04:41.962Z,101114.56
2022-08-09T03:05:45.148Z,101117.20
2022-08-09T03:06:49.277Z,101112.77
2022-08-09T03:07:55.312Z,101118.92
2022-08-09T03:08:56.061Z,101119.81
2022-08-09T03:10:00.514Z,101118.87
2022-08-09T03:11:01.604Z,101119.76
2022-08-09T03:12:06.252Z,101116.17
2022-08-09T03:13:08.400Z,101120.56
2022-08-09T03:14:11.006Z,101127.61
2022-08-09T03:15:12.964Z,101124.02
2022-08-09T03:16:16.390Z,101120.47
2022-08-09T03:17:20.441Z,101123.07
2022-08-09T03:18:30.642Z,101126.58
2022-08-09T03:19:58.001Z,101123.02
2022-08-09T03:20:29.846Z,101130.06
2022-08-09T03:21:36.513Z,101133.58
2022-08-09T03:22:42.004Z,101124.72
2022-08-09T03:23:39.164Z,101125.57
2022-08-09T03:24:42.428Z,101120.27
2022-08-09T03:25:59.125Z,101119.37
2022-08-09T03:26:48.794Z,101124.72
2022-08-09T03:27:52.489Z,101123.83
2022-08-09T03:28:56.206Z,101127.42
2022-08-09T03:30:01.305Z,101123.02
2022-08-09T03:31:02.877Z,101128.32
2022-08-09T03:32:06.746Z,101129.17
2022-08-09T03:33:17.238Z,101132.72
2022-08-09T03:34:14.162Z,101130.88
2022-08-09T03:35:24.420Z,101129.13
2022-08-09T03:36:19.962Z,101133.52
2022-08-09T03:37:54.745Z,101130.83
2022-08-09T03:38:28.969Z,101132.57
2022-08-09T03:39:38.126Z,101126.36
2022-08-09T03:40:34.651Z,101125.42
2022-08-09T03:41:45.738Z,101124.52
2022-08-09T03:42:43.119Z,101120.08
2022-08-09T03:44:03.326Z,101127.12
2022-08-09T03:44:48.009Z,101132.41
2022-08-09T03:46:03.884Z,101128.80
2022-08-09T03:46:53.618Z,101127.86
2022-08-09T03:47:55.901Z,101133.11
2022-08-09T03:48:59.563Z,101132.20
2022-08-09T03:50:03.490Z,101127.70
2022-08-09T03:51:05.361Z,101130.31
2022-08-09T03:52:09.022Z,101132.91
2022-08-09T03:53:11.692Z,101129.35
2022-08-09T03:54:13.530Z,101130.19
2022-08-09T03:55:15.427Z,101131.05
2022-08-09T03:56:20.006Z,101131.00
2022-08-09T03:57:21.843Z,101129.16
2022-08-09T03:58:23.692Z,101132.64
2022-08-09T03:59:43.181Z,101132.59
2022-08-09T04:00:31.912Z,101121.05
2022-08-09T04:01:33.725Z,101131.59
2022-08-09T04:02:36.790Z,101127.19
2022-08-09T04:04:00.608Z,101118.29
2022-08-09T04:04:46.192Z,101120.03
2022-08-09T04:05:46.197Z,101119.13
2022-08-09T04:06:49.038Z,101118.19
2022-08-09T04:07:53.726Z,101126.98
2022-08-09T04:08:55.482Z,101123.39
2022-08-09T04:09:57.342Z,101128.59
2022-08-09T04:11:01.660Z,101121.52
2022-08-09T04:12:03.626Z,101123.21
2022-08-09T04:13:06.789Z,101122.22
2022-08-09T04:14:54.289Z,101127.47
2022-08-09T04:15:17.382Z,101125.66
2022-08-09T04:16:21.207Z,101131.70
2022-08-09T04:17:20.913Z,101134.36
2022-08-09T04:18:24.898Z,101134.25
2022-08-09T04:19:30.347Z,101132.41
2022-08-09T04:20:32.670Z,101134.15
2022-08-09T04:21:36.366Z,101135.84
2022-08-09T04:22:41.316Z,101127.88
2022-08-09T04:23:42.110Z,101128.69
2022-08-09T04:24:45.788Z,101132.17
2022-08-09T04:25:51.698Z,101129.46
2022-08-09T04:26:51.650Z,101133.77
2022-08-09T04:27:53.481Z,101138.97
2022-08-09T04:29:00.510Z,101136.30
2022-08-09T04:30:00.811Z,101122.98
2022-08-09T04:31:05.906Z,101133.48
2022-08-09T04:32:07.774Z,101132.52
2022-08-09T04:33:10.629Z,101130.66
2022-08-09T04:34:12.467Z,101132.35
2022-08-09T04:35:16.171Z,101131.39
2022-08-09T04:36:19.512Z,101133.98
2022-08-09T04:37:21.861Z,101125.97
2022-08-09T04:38:24.198Z,101132.08
2022-08-09T04:39:31.241Z,101127.66
2022-08-09T04:40:36.427Z,101123.27
2022-08-09T04:41:43.785Z,101123.09
2022-08-09T04:42:40.690Z,101127.44
2022-08-09T04:43:53.759Z,101131.74
2022-08-09T04:44:49.401Z,101128.23
2022-08-09T04:45:53.617Z,101124.61
2022-08-09T04:46:58.384Z,101127.20
2022-08-09T04:48:01.945Z,101126.24
2022-08-09T04:49:02.887Z,101130.55
2022-08-09T04:50:05.146Z,101123.41
2022-08-09T04:51:07.098Z,101129.52
2022-08-09T04:52:09.759Z,101132.13
2022-08-09T04:53:13.777Z,101128.55
2022-08-09T04:54:15.616Z,101134.66
2022-08-09T04:55:19.433Z,101128.44
2022-08-09T04:56:26.123Z,101124.84
2022-08-09T04:57:25.776Z,101132.75
2022-08-09T04:58:28.042Z,101132.69
2022-08-09T04:59:31.831Z,101134.44
2022-08-09T05:00:34.449Z,101133.52
2022-08-09T05:01:37.990Z,101129.06
2022-08-09T05:02:40.043Z,101124.55
2022-08-09T05:03:43.683Z,101125.44
2022-08-09T05:04:47.294Z,101120.98
2022-08-09T05:05:52.569Z,101127.98
2022-08-09T05:06:53.501Z,101126.17
2022-08-09T05:07:57.167Z,101124.35
2022-08-09T05:09:00.510Z,101120.75
2022-08-09T05:10:02.838Z,101118.98
2022-08-09T05:11:06.677Z,101121.58
2022-08-09T05:12:08.484Z,101125.94
2022-08-09T05:13:10.756Z,101119.75
2022-08-09T05:14:12.922Z,101117.89
2022-08-09T05:15:38.696Z,101119.63
2022-08-09T05:16:20.969Z,101122.23
2022-08-09T05:18:50.736Z,101123.86
2022-08-09T05:18:55.077Z,101118.60
2022-08-09T05:19:46.037Z,101121.99
2022-08-09T05:20:35.890Z,101125.44
2022-08-09T05:21:47.421Z,101123.67
2022-08-09T05:23:53.742Z,101129.72
2022-08-09T05:23:54.578Z,101124.41
2022-08-09T05:24:49.744Z,101123.44
2022-08-09T05:25:53.427Z,101124.23
2022-08-09T05:26:57.297Z,101116.20
2022-08-09T05:27:59.646Z,101124.05
2022-08-09T05:29:02.547Z,101120.41
2022-08-09T05:30:04.805Z,101121.21
2022-08-09T05:31:09.679Z,101122.89
2022-08-09T05:32:12.088Z,101119.25
2022-08-09T05:33:15.782Z,101120.94
2022-08-09T05:34:18.431Z,101119.92
2022-08-09T05:35:21.979Z,101119.01
2022-08-09T05:36:28.811Z,101114.48
2022-08-09T05:37:29.668Z,101119.74
2022-08-09T05:38:33.453Z,101120.56
2022-08-09T05:39:42.636Z,101115.19
2022-08-09T05:40:41.294Z,101122.15
2022-08-09T05:41:43.146Z,101115.91
2022-08-09T05:42:44.994Z,101117.59
2022-08-09T05:43:49.041Z,101108.67
2022-08-09T05:44:51.980Z,101113.01
2022-08-09T05:45:56.842Z,101120.00
2022-08-09T05:46:58.033Z,101116.36
2022-08-09T05:48:01.414Z,101116.34
2022-08-09T05:49:03.465Z,101115.32
2022-08-09T05:50:25.210Z,101112.59
2022-08-09T05:51:30.054Z,101111.61
2022-08-09T05:52:15.424Z,101111.55
2022-08-09T05:53:21.602Z,101111.48
2022-08-09T05:54:21.469Z,101114.08
2022-08-09T05:55:25.149Z,101113.10
2022-08-09T05:56:27.928Z,101106.83
2022-08-09T05:57:51.296Z,101116.48
2022-08-09T05:58:33.567Z,101110.25
2022-08-09T05:59:35.417Z,101106.67
2022-08-09T06:00:39.428Z,101109.27
2022-08-09T06:01:42.941Z,101108.25
2022-08-09T06:02:46.615Z,101108.25
2022-08-09T06:03:58.063Z,101103.81
2022-08-09T06:04:52.226Z,101110.78
2022-08-09T06:06:04.586Z,101101.87
2022-08-09T06:07:00.255Z,101110.71
2022-08-09T06:08:08.153Z,101109.73
2022-08-09T06:09:10.043Z,101104.34
2022-08-09T06:10:15.966Z,101106.08
2022-08-09T06:11:16.675Z,101106.02
2022-08-09T06:12:18.931Z,101105.06
2022-08-09T06:13:21.175Z,101105.00
2022-08-09T06:14:23.345Z,101109.40
2022-08-09T06:15:26.451Z,101105.81
2022-08-09T06:16:29.506Z,101104.02
2022-08-09T06:17:39.063Z,101106.60
2022-08-09T06:18:36.464Z,101103.88
2022-08-09T06:19:38.637Z,101101.15
2022-08-09T06:20:40.897Z,101096.65
2022-08-09T06:21:51.609Z,101104.56
2022-08-09T06:22:46.749Z,101099.17
2022-08-09T06:23:57.810Z,101099.97
2022-08-09T06:24:52.392Z,101104.30
2022-08-09T06:25:55.508Z,101095.29
2022-08-09T06:26:57.840Z,101096.17
2022-08-09T06:27:59.893Z,101099.62
2022-08-09T06:29:04.757Z,101093.38
2022-08-09T06:30:09.676Z,101098.64
2022-08-09T06:31:11.052Z,101097.68
2022-08-09T06:32:53.195Z,101094.95
2022-08-09T06:33:39.581Z,101093.93
2022-08-09T06:34:20.512Z,101092.94
2022-08-09T06:35:56.534Z,101089.28
2022-08-09T06:36:29.850Z,101091.88
2022-08-09T06:37:32.102Z,101090.00
2022-08-09T06:38:37.673Z,101091.67
2022-08-09T06:39:57.682Z,101089.80
2022-08-09T06:40:43.754Z,101094.98
2022-08-09T06:42:08.941Z,101093.12
2022-08-09T06:42:49.550Z,101091.25
2022-08-09T06:43:53.346Z,101090.26
2022-08-09T06:44:55.299Z,101093.70
2022-08-09T06:46:07.380Z,101092.71
2022-08-09T06:47:02.786Z,101096.16
2022-08-09T06:48:04.734Z,101095.16
2022-08-09T06:49:06.996Z,101093.28
2022-08-09T06:50:14.643Z,101086.08
2022-08-09T06:51:14.915Z,101088.63
2022-08-09T06:52:16.843Z,101090.34
2022-08-09T06:53:20.230Z,101099.06
2022-08-09T06:54:22.694Z,101081.20
2022-08-09T06:55:26.494Z,101087.31
2022-08-09T06:56:31.018Z,101088.98
2022-08-09T06:58:01.855Z,101091.50
2022-08-09T07:00:48.645Z,101091.32
2022-08-09T07:01:02.061Z,101087.73
2022-08-09T07:02:04.647Z,101092.84
2022-08-09T07:03:06.885Z,101095.36
2022-08-09T07:04:10.377Z,101089.03
2022-08-09T07:05:12.532Z,101091.55
2022-08-09T07:06:15.815Z,101092.25
2022-08-09T07:07:28.559Z,101093.99
2022-08-09T07:08:21.861Z,101091.18
2022-08-09T07:09:55.497Z,101086.62
2022-08-09T07:10:32.236Z,101083.81
2022-08-09T07:11:34.300Z,101089.95
2022-08-09T07:12:38.681Z,101090.73
2022-08-09T07:14:04.006Z,101086.19
2022-08-09T07:14:44.599Z,101085.18
2022-08-09T07:16:36.738Z,101087.70
2022-08-09T07:16:55.344Z,101092.02
2022-08-09T07:18:02.133Z,101092.80
2022-08-09T07:18:58.402Z,101093.58
2022-08-09T07:20:00.345Z,101098.72
2022-08-09T07:21:02.303Z,101087.09
2022-08-09T07:22:04.372Z,101087.02
2022-08-09T07:23:18.597Z,101086.86
2022-08-09T07:24:09.926Z,101088.53
2022-08-09T07:25:13.605Z,101091.08
2022-08-09T07:26:19.134Z,101086.44
2022-08-09T07:27:24.148Z,101083.62
2022-08-09T07:28:28.082Z,101092.34
2022-08-09T07:29:30.841Z,101093.05
2022-08-09T07:30:33.432Z,101083.19
2022-08-09T07:31:38.319Z,101076.73
2022-08-09T07:32:40.192Z,101077.54
2022-08-09T07:33:53.248Z,101082.72
2022-08-09T07:36:07.691Z,101083.26
2022-08-09T07:37:16.031Z,101084.91
2022-08-09T07:38:15.123Z,101089.23
2022-08-09T07:39:20.633Z,101076.59
2022-08-09T07:40:27.003Z,101079.95
2022-08-09T07:41:27.591Z,101078.02
2022-08-09T07:42:32.678Z,101076.03
2022-08-09T07:43:41.171Z,101081.21
2022-08-09T07:44:38.816Z,101079.27
2022-08-09T07:45:42.502Z,101080.92
2022-08-09T07:46:44.633Z,101078.09
2022-08-09T07:48:00.502Z,101080.59
2022-08-09T07:48:58.747Z,101078.65
2022-08-09T07:50:07.919Z,101074.93
2022-08-09T07:51:09.687Z,101073.84
2022-08-09T07:52:17.051Z,101078.16
2022-08-09T07:53:07.150Z,101072.73
2022-08-09T07:54:09.048Z,101074.39
2022-08-09T07:55:11.638Z,101068.88
2022-08-09T07:56:26.505Z,101071.39
2022-08-09T07:57:17.675Z,101070.34
2022-08-09T07:58:21.550Z,101066.66
2022-08-09T07:59:33.865Z,101069.16
2022-08-09T08:00:35.615Z,101066.31
2022-08-09T08:01:34.149Z,101064.45
2022-08-09T08:02:37.109Z,101068.73
2022-08-09T08:03:40.263Z,101074.00
2022-08-09T08:04:48.629Z,101069.37
2022-08-09T08:05:53.862Z,101070.98
2022-08-09T08:06:56.133Z,101072.64
2022-08-09T08:08:43.438Z,101077.84
2022-08-09T08:09:03.694Z,101074.15
2022-08-09T08:10:07.894Z,101074.06
2022-08-09T08:12:24.094Z,101076.56
2022-08-09T08:12:28.356Z,101074.58
2022-08-09T08:13:13.912Z,101067.36
2022-08-09T08:14:16.622Z,101072.62
2022-08-09T08:15:23.230Z,101073.30
2022-08-09T08:16:30.024Z,101077.53
2022-08-09T08:17:52.902Z,101068.55
2022-08-09T08:18:31.172Z,101071.93
2022-08-09T08:19:33.168Z,101065.56
2022-08-09T08:20:35.213Z,101067.17
2022-08-09T08:21:39.841Z,101067.97
2022-08-09T08:22:41.425Z,101071.41
2022-08-09T08:23:43.692Z,101063.30
2022-08-09T08:24:49.216Z,101064.95
2022-08-09T08:26:06.531Z,101063.03
2022-08-09T08:26:56.657Z,101062.86
2022-08-09T08:27:58.482Z,101062.69
2022-08-09T08:29:00.334Z,101059.92
2022-08-09T08:30:04.485Z,101065.18
2022-08-09T08:31:13.633Z,101059.75
2022-08-09T08:32:12.522Z,101062.33
2022-08-09T08:33:23.207Z,101064.91
2022-08-09T08:34:20.818Z,101057.72
2022-08-09T08:35:22.403Z,101059.33
2022-08-09T08:36:29.725Z,101064.59
2022-08-09T08:37:40.712Z,101059.95
2022-08-09T08:38:33.599Z,101058.98
2022-08-09T08:39:39.830Z,101062.35
2022-08-09T08:40:40.366Z,101063.02
2022-08-09T08:41:51.810Z,101061.14
2022-08-09T08:42:47.290Z,101064.48
2022-08-09T08:43:49.541Z,101067.83
2022-08-09T08:44:51.802Z,101055.16
2022-08-09T08:46:17.117Z,101063.85
2022-08-09T08:47:03.213Z,101061.94
2022-08-09T08:48:01.661Z,101063.58
2022-08-09T08:49:05.349Z,101062.55
2022-08-09T08:50:08.315Z,101056.16
2022-08-09T08:51:11.924Z,101057.67
2022-08-09T08:52:24.437Z,101057.67
2022-08-09T08:53:22.014Z,101063.73
2022-08-09T08:54:29.966Z,101061.72
2022-08-09T08:55:24.748Z,101056.21
2022-08-09T08:56:28.566Z,101060.53
2022-08-09T08:57:34.953Z,101057.66
2022-08-09T08:58:36.187Z,101056.53
2022-08-09T08:59:47.128Z,101050.11
2022-08-09T09:00:43.412Z,101052.60
2022-08-09T09:01:53.423Z,101048.88
2022-08-09T09:02:52.774Z,101046.97
2022-08-09T09:03:54.929Z,101046.87
2022-08-09T09:04:58.186Z,101034.17
2022-08-09T09:06:05.114Z,101044.79
2022-08-09T09:07:05.880Z,101040.98
2022-08-09T09:08:29.154Z,101040.88
2022-08-09T09:09:21.029Z,101042.58
2022-08-09T09:10:17.683Z,101040.69
2022-08-09T09:11:20.550Z,101036.19
2022-08-09T09:12:22.501Z,101034.16
2022-08-09T09:13:24.342Z,101030.54
2022-08-09T09:14:28.009Z,101026.82
2022-08-09T09:15:31.678Z,101027.58
2022-08-09T09:16:35.958Z,101026.44
2022-08-09T09:17:49.446Z,101037.91
2022-08-09T09:18:48.176Z,101038.62
2022-08-09T09:19:45.310Z,101038.42
2022-08-09T09:20:48.271Z,101029.31
2022-08-09T09:21:50.443Z,101027.42
2022-08-09T09:22:53.505Z,101029.02
2022-08-09T09:23:59.276Z,101027.98
2022-08-09T09:26:01.831Z,101029.61
2022-08-09T09:26:12.161Z,101033.89
2022-08-09T09:27:08.686Z,101030.16
2022-08-09T09:28:11.162Z,101027.28
2022-08-09T09:29:17.118Z,101029.02
2022-08-09T09:30:38.113Z,101028.17
2022-08-09T09:32:06.475Z,101026.34
2022-08-09T09:32:35.000Z,101022.71
2022-08-09T09:33:29.918Z,101027.97
2022-08-09T09:34:33.624Z,101026.14
2022-08-09T09:35:35.801Z,101024.21
2022-08-09T09:36:46.660Z,101024.99
2022-08-09T09:37:44.921Z,101016.85
2022-08-09T09:38:46.826Z,101023.71
2022-08-09T09:39:54.707Z,101014.62
2022-08-09T09:40:52.532Z,101022.56
2022-08-09T09:41:54.563Z,101014.32
2022-08-09T09:42:56.434Z,101015.00
2022-08-09T09:44:12.443Z,101016.59
2022-08-09T09:45:02.295Z,101012.87
2022-08-09T09:47:10.387Z,101015.28
2022-08-09T09:48:13.476Z,101021.19
2022-08-09T09:49:15.406Z,101014.88
2022-08-09T09:50:19.306Z,101008.55
2022-08-09T09:51:37.947Z,101013.81
2022-08-09T09:52:35.900Z,101006.52
2022-08-09T09:53:57.172Z,101017.14
2022-08-09T09:54:34.182Z,101019.72
2022-08-09T09:55:37.685Z,101017.92
2022-08-09T09:56:53.422Z,101016.84
2022-08-09T09:58:02.984Z,101010.52
2022-08-09T09:58:49.095Z,101014.83
2022-08-09T09:59:52.043Z,101009.27
2022-08-09T10:00:59.034Z,101009.16
2022-08-09T10:01:58.055Z,101015.16
2022-08-09T10:03:00.010Z,101006.16
2022-08-09T10:04:04.345Z,101003.37
2022-08-09T10:05:06.670Z,101007.69
2022-08-09T10:06:12.433Z,101010.16
2022-08-09T10:07:14.314Z,101014.44
2022-08-09T10:08:28.281Z,101001.80
2022-08-09T10:09:22.682Z,101001.70
2022-08-09T10:10:26.623Z,101013.17
2022-08-09T10:11:59.697Z,101005.87
2022-08-09T10:12:34.193Z,101012.89
2022-08-09T10:13:43.244Z,101008.27
2022-08-09T10:14:39.939Z,101015.36
2022-08-09T10:16:08.700Z,101022.36
2022-08-09T10:16:56.835Z,101013.35
2022-08-09T10:17:56.539Z,101022.04
2022-08-09T10:18:56.145Z,101012.05
2022-08-09T10:20:00.215Z,101011.94
2022-08-09T10:21:02.507Z,101006.36
2022-08-09T10:22:05.281Z,101008.84
2022-08-09T10:23:07.639Z,101008.62
2022-08-09T10:24:15.963Z,101005.83
2022-08-09T10:25:15.202Z,101005.65
2022-08-09T10:26:19.446Z,101010.80
2022-08-09T10:27:26.201Z,101004.34
2022-08-09T10:28:25.227Z,101009.50
2022-08-09T10:30:28.347Z,100988.79
2022-08-09T10:32:13.695Z,100995.75
2022-08-09T10:32:37.363Z,100991.16
2022-08-09T10:32:42.990Z,100997.27
2022-08-09T10:34:08.422Z,100994.47
2022-08-09T10:34:48.357Z,100996.09
2022-08-09T10:35:52.051Z,100997.70
2022-08-09T10:36:54.247Z,100995.88
2022-08-09T10:37:56.295Z,100998.55
2022-08-09T10:39:00.515Z,101003.00
2022-08-09T10:40:02.841Z,101000.20
2022-08-09T10:41:04.862Z,100994.73
2022-08-09T10:42:07.448Z,100999.98
2022-08-09T10:43:11.066Z,100992.67
2022-08-09T10:44:12.894Z,100984.51
2022-08-09T10:45:16.807Z,100989.77
2022-08-09T10:46:25.200Z,100985.36
2022-08-09T10:48:20.131Z,100981.60
2022-08-09T10:48:30.634Z,100985.02
2022-08-09T10:49:50.478Z,100979.55
2022-08-09T10:50:34.261Z,100976.86
2022-08-09T10:51:41.262Z,100978.70
2022-08-09T10:52:44.518Z,100977.84
2022-08-09T10:53:46.647Z,100981.49
2022-08-09T10:54:47.229Z,100992.23
2022-08-09T10:55:58.749Z,100978.06
2022-08-09T10:56:54.761Z,100976.45
2022-08-09T10:58:00.261Z,100978.40
2022-08-09T10:59:01.865Z,100980.31
2022-08-09T11:00:05.238Z,100975.16
2022-08-09T11:03:15.058Z,100971.52
2022-08-09T11:03:16.529Z,100975.05
2022-08-09T11:03:27.320Z,100980.42
2022-08-09T11:04:19.989Z,100982.26
2022-08-09T11:05:25.287Z,100982.37
2022-08-09T11:06:26.062Z,100986.89
2022-08-09T11:07:28.100Z,100981.52
2022-08-09T11:08:33.311Z,100970.78
2022-08-09T11:09:37.331Z,100970.78
2022-08-09T11:10:39.218Z,100977.00
2022-08-09T11:11:43.653Z,100978.84
2022-08-09T11:12:46.740Z,100976.89
2022-08-09T11:13:54.793Z,100977.73
2022-08-09T11:14:54.136Z,100972.47
2022-08-09T11:16:06.350Z,100975.27
2022-08-09T11:17:01.569Z,100975.27
2022-08-09T11:18:04.005Z,100969.90
2022-08-09T11:19:09.957Z,100975.27
2022-08-09T11:20:22.957Z,100970.78
2022-08-09T11:21:13.940Z,100971.63
2022-08-09T11:22:21.560Z,100972.47
2022-08-09T11:23:24.188Z,100969.68
2022-08-09T11:24:25.005Z,100963.35
2022-08-09T11:25:45.235Z,100978.40
2022-08-09T11:26:30.901Z,100965.82
2022-08-09T11:28:05.326Z,100972.80
2022-08-09T11:28:38.640Z,100967.44
2022-08-09T11:30:05.878Z,100967.22
2022-08-09T11:30:47.778Z,100965.27
2022-08-09T11:31:49.602Z,100966.88
2022-08-09T11:32:52.283Z,100965.92
2022-08-09T11:33:55.938Z,100963.02
2022-08-09T11:34:57.827Z,100960.22
2022-08-09T11:35:59.678Z,100961.91
2022-08-09T11:37:01.864Z,100961.80
2022-08-09T11:38:03.833Z,100955.47
2022-08-09T11:39:06.427Z,100951.83
2022-08-09T11:40:10.492Z,100957.09
2022-08-09T11:41:13.008Z,100949.77
2022-08-09T11:42:15.647Z,100965.88
2022-08-09T11:43:17.591Z,100958.56
2022-08-09T11:44:19.446Z,100958.45
2022-08-09T11:45:21.916Z,100963.82
2022-08-09T11:46:32.960Z,100960.29
2022-08-09T11:47:29.296Z,100964.81
2022-08-09T11:48:32.988Z,100951.49
2022-08-09T11:49:42.896Z,100956.98
2022-08-09T11:50:56.053Z,100949.88
2022-08-09T11:52:56.677Z,100944.50
2022-08-09T11:53:15.377Z,100950.72
2022-08-09T11:53:59.238Z,100949.88
2022-08-09T11:54:55.352Z,100953.52
2022-08-09T11:56:02.606Z,100948.15
2022-08-09T11:57:01.101Z,100944.61
2022-08-09T11:58:06.119Z,100945.57
2022-08-09T11:59:06.748Z,100953.74
2022-08-09T12:00:15.842Z,100937.63
2022-08-09T12:01:37.453Z,100943.00
2022-08-09T12:02:37.168Z,100945.80
2022-08-09T12:03:55.430Z,100944.95
2022-08-09T12:04:32.473Z,100937.85
2022-08-09T12:05:28.599Z,100945.06
2022-08-09T12:06:32.077Z,100942.48
2022-08-09T12:07:41.890Z,100947.12